createdAt,value
2018-04-11T00:01:18.887Z,10.10
2018-04-11T00:03:47.367Z,10.10
2018-04-11T00:06:15.719Z,10.00
2018-04-11T00:08:44.107Z,10.00
2018-04-11T00:11:12.284Z,10.00
2018-04-11T00:13:40.506Z,10.10
2018-04-11T00:16:08.632Z,10.00
2018-04-11T00:18:36.948Z,10.00
2018-04-11T00:21:05.033Z,10.10
2018-04-11T00:23:33.437Z,10.10
2018-04-11T00:26:01.764Z,10.10
2018-04-11T00:28:30.175Z,10.10
2018-04-11T00:30:58.562Z,10.00
2018-04-11T00:33:26.940Z,10.00
2018-04-11T00:35:55.313Z,10.00
2018-04-11T00:38:23.682Z,9.90
2018-04-11T00:40:52.023Z,9.90
2018-04-11T00:43:20.118Z,10.00
2018-04-11T00:45:48.385Z,9.90
2018-04-11T00:48:16.673Z,9.90
2018-04-11T00:50:44.974Z,9.90
2018-04-11T00:53:25.017Z,9.90
2018-04-11T00:55:53.385Z,9.90
2018-04-11T00:58:21.725Z,9.80
2018-04-11T01:00:49.831Z,9.70
2018-04-11T01:03:18.209Z,9.60
2018-04-11T01:05:46.547Z,9.70
2018-04-11T01:08:14.666Z,9.60
2018-04-11T01:10:43.054Z,9.60
2018-04-11T01:13:11.418Z,9.60
2018-04-11T01:15:39.783Z,9.60
2018-04-11T01:18:07.864Z,9.60
2018-04-11T01:20:36.247Z,9.60
2018-04-11T01:23:04.327Z,9.60
2018-04-11T01:25:32.408Z,9.60
2018-04-11T01:28:00.789Z,9.60
2018-04-11T01:30:28.879Z,9.60
2018-04-11T01:32:57.204Z,9.50
2018-04-11T01:35:25.673Z,9.50
2018-04-11T01:37:53.952Z,9.40
2018-04-11T01:40:22.192Z,9.40
2018-04-11T01:42:50.312Z,9.40
2018-04-11T01:45:18.628Z,9.40
2018-04-11T01:47:46.774Z,9.40
2018-04-11T01:50:15.065Z,9.30
2018-04-11T01:52:43.223Z,9.40
2018-04-11T01:55:11.623Z,9.30
2018-04-11T01:57:39.957Z,9.40
2018-04-11T02:00:08.061Z,9.30
2018-04-11T02:02:36.171Z,9.30
2018-04-11T02:05:04.490Z,9.30
2018-04-11T02:07:32.595Z,9.30
2018-04-11T02:10:00.931Z,9.30
2018-04-11T02:12:29.038Z,9.30
2018-04-11T02:14:57.403Z,9.30
2018-04-11T02:17:25.843Z,9.40
2018-04-11T02:19:53.918Z,9.30
2018-04-11T02:22:22.217Z,9.40
2018-04-11T02:24:50.676Z,9.30
2018-04-11T02:27:18.985Z,9.30
2018-04-11T02:29:47.270Z,9.30
2018-04-11T02:32:15.439Z,9.30
2018-04-11T02:34:43.730Z,9.30
2018-04-11T02:37:11.818Z,9.30
2018-04-11T02:39:39.936Z,9.20
2018-04-11T02:42:08.596Z,9.20
2018-04-11T02:44:36.689Z,9.10
2018-04-11T02:47:04.879Z,9.20
2018-04-11T02:49:33.023Z,9.20
2018-04-11T02:52:01.524Z,9.20
2018-04-11T02:54:29.591Z,9.10
2018-04-11T02:56:57.975Z,9.10
2018-04-11T02:59:26.054Z,9.10
2018-04-11T03:01:54.426Z,9.10
2018-04-11T03:04:22.792Z,9.10
2018-04-11T03:06:50.896Z,9.10
2018-04-11T03:09:19.241Z,9.10
2018-04-11T03:11:47.633Z,9.10
2018-04-11T03:14:15.738Z,9.10
2018-04-11T03:16:44.082Z,9.10
2018-04-11T03:19:12.249Z,9.10
2018-04-11T03:21:40.342Z,9.10
2018-04-11T03:24:08.703Z,9.10
2018-04-11T03:26:37.095Z,9.20
2018-04-11T03:29:05.174Z,9.20
2018-04-11T03:31:33.457Z,9.20
2018-04-11T03:34:01.534Z,9.30
2018-04-11T03:36:29.894Z,9.20
2018-04-11T03:38:58.031Z,9.30
2018-04-11T03:41:26.447Z,9.40
2018-04-11T03:43:54.746Z,9.30
2018-04-11T03:46:22.832Z,9.30
2018-04-11T03:48:50.933Z,9.20
2018-04-11T03:51:19.322Z,9.30
2018-04-11T03:53:47.682Z,9.30
2018-04-11T03:56:16.158Z,9.30
2018-04-11T03:58:44.349Z,9.30
2018-04-11T04:01:12.533Z,9.40
2018-04-11T04:03:40.891Z,9.30
2018-04-11T04:06:09.268Z,9.40
2018-04-11T04:08:37.639Z,9.40
2018-04-11T04:11:06.022Z,9.40
2018-04-11T04:13:45.863Z,9.50
2018-04-11T04:16:25.858Z,9.40
2018-04-11T04:19:05.814Z,9.50
2018-04-11T04:21:33.882Z,9.50
2018-04-11T04:24:01.965Z,9.40
2018-04-11T04:26:30.082Z,9.50
2018-04-11T04:28:58.153Z,9.50
2018-04-11T04:31:26.426Z,9.50
2018-04-11T04:33:54.614Z,9.50
2018-04-11T04:36:22.798Z,9.40
2018-04-11T04:38:51.107Z,9.40
2018-04-11T04:41:19.479Z,9.30
2018-04-11T04:43:47.600Z,9.30
2018-04-11T04:46:15.999Z,9.20
2018-04-11T04:48:44.297Z,9.20
2018-04-11T04:51:12.414Z,9.10
2018-04-11T04:53:40.849Z,9.10
2018-04-11T04:56:08.974Z,9.00
2018-04-11T04:58:37.370Z,9.00
2018-04-11T05:01:05.650Z,9.10
2018-04-11T05:03:33.863Z,9.00
2018-04-11T05:06:02.197Z,9.00
2018-04-11T05:08:30.374Z,9.00
2018-04-11T05:10:58.695Z,9.10
2018-04-11T05:13:27.043Z,9.10
2018-04-11T05:15:55.308Z,9.10
2018-04-11T05:18:23.514Z,9.10
2018-04-11T05:20:51.772Z,9.10
2018-04-11T05:23:20.066Z,9.10
2018-04-11T05:25:48.221Z,9.10
2018-04-11T05:28:16.758Z,9.10
2018-04-11T05:30:45.814Z,9.20
2018-04-11T05:33:14.435Z,9.10
2018-04-11T05:35:42.622Z,9.10
2018-04-11T05:38:10.903Z,9.10
2018-04-11T05:40:39.094Z,9.10
2018-04-11T05:43:07.455Z,9.10
2018-04-11T05:45:35.884Z,9.10
2018-04-11T05:48:04.024Z,9.10
2018-04-11T05:50:32.217Z,9.20
2018-04-11T05:53:00.341Z,9.20
2018-04-11T05:55:28.800Z,9.30
2018-04-11T05:57:56.926Z,9.30
2018-04-11T06:00:25.005Z,9.30
2018-04-11T06:02:54.155Z,9.40
2018-04-11T06:05:22.421Z,9.40
2018-04-11T06:07:50.877Z,9.50
2018-04-11T06:10:19.254Z,9.50
2018-04-11T06:12:47.702Z,9.40
2018-04-11T06:15:15.980Z,9.50
2018-04-11T06:17:44.220Z,9.50
2018-04-11T06:20:12.627Z,9.50
2018-04-11T06:22:41.030Z,9.50
2018-04-11T06:25:09.373Z,9.50
2018-04-11T06:27:38.359Z,9.60
2018-04-11T06:30:06.855Z,9.60
2018-04-11T06:32:34.943Z,9.60
2018-04-11T06:35:03.236Z,9.70
2018-04-11T06:37:31.522Z,9.70
2018-04-11T06:39:59.656Z,9.70
2018-04-11T06:42:28.041Z,9.70
2018-04-11T06:44:56.632Z,9.70
2018-04-11T06:47:25.752Z,9.70
2018-04-11T06:49:54.391Z,9.70
2018-04-11T06:52:22.679Z,9.70
2018-04-11T06:54:51.365Z,9.80
2018-04-11T06:57:19.772Z,9.90
2018-04-11T06:59:47.934Z,9.90
2018-04-11T07:02:16.591Z,9.90
2018-04-11T07:04:44.818Z,9.90
2018-04-11T07:07:13.075Z,9.90
2018-04-11T07:09:41.429Z,9.90
2018-04-11T07:12:10.038Z,9.90
2018-04-11T07:14:38.622Z,9.90
2018-04-11T07:17:06.774Z,9.90
2018-04-11T07:19:35.849Z,9.80
2018-04-11T07:22:04.052Z,9.80
2018-04-11T07:24:32.777Z,9.80
2018-04-11T07:27:00.965Z,9.80
2018-04-11T07:29:29.249Z,9.80
2018-04-11T07:31:57.750Z,9.80
2018-04-11T07:34:26.731Z,9.90
2018-04-11T07:36:55.046Z,9.90
2018-04-11T07:39:23.490Z,9.80
2018-04-11T07:41:52.135Z,10.00
2018-04-11T07:44:20.536Z,10.00
2018-04-11T07:46:48.881Z,10.10
2018-04-11T07:49:17.009Z,10.00
2018-04-11T07:51:45.314Z,10.10
2018-04-11T07:54:13.637Z,10.10
2018-04-11T07:56:42.412Z,10.20
2018-04-11T07:59:10.768Z,10.20
2018-04-11T08:01:39.178Z,10.20
2018-04-11T08:04:07.301Z,10.20
2018-04-11T08:06:35.670Z,10.20
2018-04-11T08:09:03.923Z,10.30
2018-04-11T08:11:32.062Z,10.30
2018-04-11T08:14:00.259Z,10.30
2018-04-11T08:16:28.574Z,10.40
2018-04-11T08:18:56.820Z,10.40
2018-04-11T08:21:25.302Z,10.50
2018-04-11T08:23:53.086Z,10.60
2018-04-11T08:26:21.442Z,10.60
2018-04-11T08:28:49.927Z,10.60
2018-04-11T08:31:18.243Z,10.70
2018-04-11T08:33:47.338Z,10.80
2018-04-11T08:36:15.623Z,10.90
2018-04-11T08:38:44.430Z,10.90
2018-04-11T08:41:12.786Z,11.00
2018-04-11T08:43:41.512Z,11.00
2018-04-11T08:46:09.979Z,11.10
2018-04-11T08:48:38.297Z,11.20
2018-04-11T08:51:06.579Z,11.30
2018-04-11T08:53:34.698Z,11.40
2018-04-11T08:56:03.256Z,11.50
2018-04-11T08:58:31.893Z,11.60
2018-04-11T09:01:00.297Z,11.70
2018-04-11T09:03:29.189Z,11.70
2018-04-11T09:05:57.348Z,11.80
2018-04-11T09:08:25.766Z,11.70
2018-04-11T09:10:54.067Z,11.70
2018-04-11T09:13:22.417Z,11.80
2018-04-11T09:15:50.856Z,11.90
2018-04-11T09:18:19.506Z,11.90
2018-04-11T09:20:48.039Z,11.80
2018-04-11T09:23:16.476Z,11.80
2018-04-11T09:25:44.894Z,11.90
2018-04-11T09:28:13.435Z,11.90
2018-04-11T09:30:41.663Z,11.90
2018-04-11T09:33:10.088Z,12.00
2018-04-11T09:35:38.504Z,12.00
2018-04-11T09:38:07.171Z,12.10
2018-04-11T09:40:35.368Z,12.20
2018-04-11T09:43:03.547Z,12.10
2018-04-11T09:45:31.994Z,12.20
2018-04-11T09:48:00.314Z,12.20
2018-04-11T09:50:28.580Z,12.20
2018-04-11T09:52:56.953Z,12.20
2018-04-11T09:55:25.382Z,12.20
2018-04-11T09:57:53.560Z,12.20
2018-04-11T10:00:21.749Z,12.30
2018-04-11T10:02:56.059Z,12.30
2018-04-11T10:05:24.669Z,12.30
2018-04-11T10:07:53.546Z,12.40
2018-04-11T10:10:21.920Z,12.40
2018-04-11T10:12:50.144Z,12.40
2018-04-11T10:15:18.388Z,12.40
2018-04-11T10:17:46.655Z,12.40
2018-04-11T10:20:15.128Z,12.50
2018-04-11T10:22:43.370Z,12.40
2018-04-11T10:25:11.580Z,12.50
2018-04-11T10:27:39.887Z,12.60
2018-04-11T10:30:08.119Z,12.70
2018-04-11T10:32:36.318Z,12.90
2018-04-11T10:35:04.940Z,13.00
2018-04-11T10:37:33.220Z,13.10
2018-04-11T10:40:01.653Z,13.10
2018-04-11T10:42:29.916Z,13.20
2018-04-11T10:44:58.348Z,13.30
2018-04-11T10:47:26.581Z,13.40
2018-04-11T10:49:54.689Z,13.60
2018-04-11T10:52:22.815Z,13.70
2018-04-11T10:54:51.499Z,13.90
2018-04-11T10:57:20.389Z,14.00
2018-04-11T10:59:49.032Z,14.10
2018-04-11T11:02:17.203Z,14.20
2018-04-11T11:04:45.624Z,14.20
2018-04-11T11:07:14.310Z,14.30
2018-04-11T11:09:42.526Z,14.40
2018-04-11T11:12:10.968Z,14.40
2018-04-11T11:14:39.477Z,14.40
2018-04-11T11:17:07.902Z,14.40
2018-04-11T11:19:36.400Z,14.40
2018-04-11T11:22:05.821Z,14.40
2018-04-11T11:24:34.111Z,14.50
2018-04-11T11:27:02.497Z,14.50
2018-04-11T11:29:30.874Z,14.60
2018-04-11T11:31:59.526Z,14.70
2018-04-11T11:34:27.748Z,14.50
2018-04-11T11:36:56.024Z,14.50
2018-04-11T11:39:24.240Z,14.40
2018-04-11T11:41:52.590Z,14.30
2018-04-11T11:44:20.906Z,14.30
2018-04-11T11:46:49.279Z,14.40
2018-04-11T11:49:17.375Z,14.40
2018-04-11T11:51:45.784Z,14.40
2018-04-11T11:54:14.158Z,14.40
2018-04-11T11:56:42.477Z,14.60
2018-04-11T11:59:10.867Z,14.70
2018-04-11T12:01:39.080Z,14.60
2018-04-11T12:04:07.462Z,14.70
2018-04-11T12:06:35.716Z,14.70
2018-04-11T12:09:04.024Z,14.70
2018-04-11T12:11:32.268Z,14.70
2018-04-11T12:14:00.430Z,14.70
2018-04-11T12:16:29.151Z,14.60
2018-04-11T12:18:57.516Z,14.60
2018-04-11T12:21:25.904Z,14.60
2018-04-11T12:23:54.729Z,14.80
2018-04-11T12:26:23.248Z,14.90
2018-04-11T12:28:51.745Z,15.10
2018-04-11T12:31:19.872Z,15.10
2018-04-11T12:33:48.010Z,15.10
2018-04-11T12:36:16.421Z,15.20
2018-04-11T12:38:44.526Z,15.30
2018-04-11T12:41:12.875Z,15.30
2018-04-11T12:43:41.068Z,15.40
2018-04-11T12:46:09.171Z,15.50
2018-04-11T12:48:37.378Z,15.60
2018-04-11T12:51:05.530Z,15.60
2018-04-11T12:53:33.839Z,15.50
2018-04-11T12:56:01.971Z,15.50
2018-04-11T12:58:30.528Z,15.50
2018-04-11T13:00:59.996Z,15.50
2018-04-11T13:03:27.720Z,15.50
2018-04-11T13:05:56.070Z,15.50
2018-04-11T13:08:24.230Z,15.50
2018-04-11T13:10:52.314Z,15.60
2018-04-11T13:13:20.985Z,15.70
2018-04-11T13:15:49.363Z,15.80
2018-04-11T13:18:17.728Z,15.70
2018-04-11T13:20:45.827Z,15.80
2018-04-11T13:23:14.090Z,15.90
2018-04-11T13:25:42.516Z,16.00
2018-04-11T13:28:10.943Z,16.10
2018-04-11T13:30:39.140Z,16.10
2018-04-11T13:33:07.631Z,16.30
2018-04-11T13:35:35.987Z,16.50
2018-04-11T13:38:04.140Z,16.60
2018-04-11T13:40:32.457Z,16.80
2018-04-11T13:43:00.917Z,16.90
2018-04-11T13:45:29.284Z,17.00
2018-04-11T13:47:57.597Z,17.10
2018-04-11T13:50:26.173Z,17.20
2018-04-11T13:52:54.287Z,17.30
2018-04-11T13:55:23.124Z,17.40
2018-04-11T13:57:51.407Z,17.60
2018-04-11T14:00:19.717Z,17.50
2018-04-11T14:02:47.819Z,17.40
2018-04-11T14:05:15.958Z,17.30
2018-04-11T14:07:44.376Z,17.40
2018-04-11T14:10:12.484Z,17.50
2018-04-11T14:12:40.830Z,17.50
2018-04-11T14:15:09.131Z,17.60
2018-04-11T14:17:37.279Z,17.60
2018-04-11T14:20:05.657Z,17.60
2018-04-11T14:22:34.036Z,17.60
2018-04-11T14:25:02.154Z,17.80
2018-04-11T14:27:30.406Z,17.90
2018-04-11T14:29:58.756Z,17.90
2018-04-11T14:32:27.117Z,18.00
2018-04-11T14:34:55.220Z,18.00
2018-04-11T14:37:23.562Z,17.90
2018-04-11T14:39:52.210Z,17.90
2018-04-11T14:42:20.341Z,17.90
2018-04-11T14:44:48.810Z,17.90
2018-04-11T14:47:17.209Z,17.90
2018-04-11T14:49:45.551Z,17.90
2018-04-11T14:52:14.143Z,17.90
2018-04-11T14:54:42.255Z,18.00
2018-04-11T14:57:10.781Z,18.00
2018-04-11T14:59:39.386Z,18.00
2018-04-11T15:02:07.712Z,18.00
2018-04-11T15:04:36.241Z,18.00
2018-04-11T15:07:04.387Z,18.10
2018-04-11T15:09:32.547Z,18.20
2018-04-11T15:12:00.993Z,18.10
2018-04-11T15:14:29.218Z,18.10
2018-04-11T15:16:57.582Z,18.10
2018-04-11T15:19:25.769Z,18.00
2018-04-11T15:21:54.138Z,18.00
2018-04-11T15:24:22.492Z,18.00
2018-04-11T15:26:50.946Z,18.00
2018-04-11T15:29:19.530Z,18.00
2018-04-11T15:31:48.271Z,18.00
2018-04-11T15:34:16.594Z,17.90
2018-04-11T15:36:44.905Z,17.90
2018-04-11T15:39:13.317Z,17.90
2018-04-11T15:41:41.645Z,17.90
2018-04-11T15:44:10.049Z,17.90
2018-04-11T15:46:38.388Z,17.90
2018-04-11T15:49:06.901Z,17.90
2018-04-11T15:51:35.176Z,17.80
2018-04-11T15:54:03.680Z,17.80
2018-04-11T15:56:31.908Z,17.80
2018-04-11T15:59:00.878Z,17.80
2018-04-11T16:01:29.009Z,17.80
2018-04-11T16:03:57.117Z,17.70
2018-04-11T16:06:25.240Z,17.70
2018-04-11T16:08:54.014Z,17.60
2018-04-11T16:11:22.268Z,17.60
2018-04-11T16:13:50.481Z,17.50
2018-04-11T16:16:18.928Z,17.40
2018-04-11T16:18:47.034Z,17.20
2018-04-11T16:21:15.409Z,17.20
2018-04-11T16:23:43.547Z,17.10
2018-04-11T16:26:11.927Z,17.00
2018-04-11T16:28:40.228Z,17.10
2018-04-11T16:31:08.587Z,17.00
2018-04-11T16:33:36.763Z,17.00
2018-04-11T16:36:05.055Z,17.00
2018-04-11T16:38:33.450Z,17.00
2018-04-11T16:41:01.669Z,16.80
2018-04-11T16:43:29.776Z,16.50
2018-04-11T16:45:58.028Z,16.30
2018-04-11T16:48:26.381Z,16.10
2018-04-11T16:50:54.507Z,16.00
2018-04-11T16:53:23.006Z,15.70
2018-04-11T16:55:51.413Z,15.60
2018-04-11T16:58:19.522Z,15.50
2018-04-11T17:00:47.891Z,15.40
2018-04-11T17:03:15.979Z,15.40
2018-04-11T17:05:44.403Z,15.40
2018-04-11T17:08:12.783Z,15.40
2018-04-11T17:10:40.935Z,15.30
2018-04-11T17:13:09.190Z,15.30
2018-04-11T17:15:37.298Z,15.30
2018-04-11T17:18:05.601Z,15.40
2018-04-11T17:20:45.479Z,15.30
2018-04-11T17:23:25.397Z,15.30
2018-04-11T17:26:05.436Z,15.30
2018-04-11T17:28:45.272Z,15.20
2018-04-11T17:31:18.881Z,15.20
2018-04-11T17:33:47.366Z,15.00
2018-04-11T17:36:15.842Z,14.90
2018-04-11T17:38:44.257Z,14.90
2018-04-11T17:41:13.716Z,14.80
2018-04-11T17:43:42.304Z,14.70
2018-04-11T17:46:10.641Z,14.50
2018-04-11T17:48:38.940Z,14.40
2018-04-11T17:51:07.038Z,14.30
2018-04-11T17:53:35.151Z,14.20
2018-04-11T17:56:05.602Z,14.30
2018-04-11T17:58:34.044Z,14.40
2018-04-11T18:01:02.414Z,14.40
2018-04-11T18:03:30.544Z,14.40
2018-04-11T18:05:58.873Z,14.50
2018-04-11T18:08:27.262Z,14.40
2018-04-11T18:10:55.667Z,14.40
2018-04-11T18:13:23.992Z,14.30
2018-04-11T18:15:52.367Z,14.30
2018-04-11T18:18:20.435Z,14.20
2018-04-11T18:20:48.634Z,14.00
2018-04-11T18:23:16.870Z,13.90
2018-04-11T18:25:44.967Z,13.90
2018-04-11T18:28:13.332Z,13.90
2018-04-11T18:30:41.419Z,13.80
2018-04-11T18:33:09.527Z,13.70
2018-04-11T18:35:37.638Z,13.60
2018-04-11T18:38:05.821Z,13.50
2018-04-11T18:40:33.967Z,13.50
2018-04-11T18:43:02.254Z,13.50
2018-04-11T18:45:30.683Z,13.40
2018-04-11T18:47:58.986Z,13.40
2018-04-11T18:50:27.126Z,13.40
2018-04-11T18:52:55.277Z,13.30
2018-04-11T18:55:23.969Z,13.30
2018-04-11T18:57:52.056Z,13.30
2018-04-11T19:00:20.181Z,13.30
2018-04-11T19:02:48.432Z,13.30
2018-04-11T19:05:16.639Z,13.20
2018-04-11T19:07:44.938Z,13.20
2018-04-11T19:10:13.056Z,13.10
2018-04-11T19:12:44.865Z,13.00
2018-04-11T19:15:14.078Z,12.90
2018-04-11T19:17:46.085Z,12.70
2018-04-11T19:20:19.245Z,12.60
2018-04-11T19:22:47.561Z,12.50
2018-04-11T19:25:23.009Z,12.40
2018-04-11T19:27:51.351Z,12.40
2018-04-11T19:30:19.645Z,12.20
2018-04-11T19:32:47.807Z,12.20
2018-04-11T19:35:16.452Z,12.20
2018-04-11T19:37:44.885Z,12.20
2018-04-11T19:40:13.176Z,12.20
2018-04-11T19:42:41.381Z,12.10
2018-04-11T19:45:09.606Z,12.10
2018-04-11T19:47:38.082Z,12.10
2018-04-11T19:50:07.060Z,12.00
2018-04-11T19:52:35.406Z,11.90
2018-04-11T19:55:04.747Z,12.00
2018-04-11T19:57:32.976Z,12.00
2018-04-11T20:00:01.176Z,12.00
2018-04-11T20:02:29.545Z,12.00
2018-04-11T20:04:57.915Z,12.00
2018-04-11T20:07:26.281Z,12.20
2018-04-11T20:09:54.458Z,12.20
2018-04-11T20:12:22.870Z,12.30
2018-04-11T20:14:51.025Z,12.30
2018-04-11T20:17:19.245Z,12.30
2018-04-11T20:19:47.469Z,12.20
2018-04-11T20:22:16.293Z,12.00
2018-04-11T20:24:44.381Z,12.00
2018-04-11T20:27:12.512Z,11.80
2018-04-11T20:29:40.901Z,11.60
2018-04-11T20:32:09.192Z,11.40
2018-04-11T20:34:38.553Z,11.30
2018-04-11T20:37:06.883Z,11.10
2018-04-11T20:39:35.005Z,11.10
2018-04-11T20:42:03.144Z,10.90
2018-04-11T20:44:31.362Z,10.90
2018-04-11T20:46:59.674Z,10.80
2018-04-11T20:49:27.834Z,10.60
2018-04-11T20:51:56.131Z,10.60
2018-04-11T20:54:24.381Z,10.60
2018-04-11T20:56:52.652Z,10.50
2018-04-11T20:59:20.749Z,10.40
2018-04-11T21:01:48.863Z,10.30
2018-04-11T21:04:16.946Z,10.30
2018-04-11T21:06:45.185Z,10.30
2018-04-11T21:09:13.424Z,10.30
2018-04-11T21:11:41.630Z,10.30
2018-04-11T21:14:09.823Z,10.20
2018-04-11T21:16:38.075Z,10.20
2018-04-11T21:19:06.364Z,10.20
2018-04-11T21:21:34.487Z,10.10
2018-04-11T21:24:02.861Z,10.10
2018-04-11T21:26:30.974Z,10.10
2018-04-11T21:28:59.226Z,10.00
2018-04-11T21:31:27.608Z,9.90
2018-04-11T21:33:55.957Z,9.90
2018-04-11T21:36:24.335Z,10.00
2018-04-11T21:38:52.717Z,10.00
2018-04-11T21:41:20.847Z,10.00
2018-04-11T21:43:49.192Z,10.10
2018-04-11T21:46:17.639Z,10.10
2018-04-11T21:48:45.999Z,10.20
2018-04-11T21:51:14.173Z,10.20
2018-04-11T21:53:42.316Z,10.20
2018-04-11T21:56:10.427Z,10.20
2018-04-11T21:58:38.524Z,10.10
2018-04-11T22:01:07.213Z,10.00
2018-04-11T22:03:35.377Z,10.00
2018-04-11T22:09:03.275Z,9.90
2018-04-11T22:11:31.672Z,9.90
2018-04-11T22:13:59.793Z,9.90
2018-04-11T22:16:27.980Z,9.90
2018-04-11T22:18:56.344Z,10.00
2018-04-11T22:21:24.697Z,10.00
2018-04-11T22:23:52.831Z,10.00
2018-04-11T22:26:20.957Z,10.00
2018-04-11T22:28:49.262Z,10.10
2018-04-11T22:31:17.365Z,10.10
2018-04-11T22:33:45.773Z,10.20
2018-04-11T22:36:13.908Z,10.30
2018-04-11T22:38:42.242Z,10.40
2018-04-11T22:41:10.706Z,10.40
2018-04-11T22:43:38.940Z,10.30
2018-04-11T22:46:07.088Z,10.30
2018-04-11T22:48:35.420Z,10.30
2018-04-11T22:51:03.543Z,10.20
2018-04-11T22:53:31.671Z,10.30
2018-04-11T22:56:00.290Z,10.40
2018-04-11T22:58:28.703Z,10.30
2018-04-11T23:00:56.976Z,10.30
2018-04-11T23:03:25.331Z,10.30
2018-04-11T23:05:53.429Z,10.40
2018-04-11T23:08:21.781Z,10.50
2018-04-11T23:10:50.148Z,10.50
2018-04-11T23:13:18.454Z,10.50
2018-04-11T23:15:46.584Z,10.50
2018-04-11T23:18:14.929Z,10.50
2018-04-11T23:20:43.063Z,10.50
2018-04-11T23:23:11.400Z,10.40
2018-04-11T23:25:39.481Z,10.40
2018-04-11T23:28:07.875Z,10.40
2018-04-11T23:30:36.321Z,10.40
2018-04-11T23:33:04.443Z,10.40
2018-04-11T23:35:32.530Z,10.40
2018-04-11T23:38:00.693Z,10.30
2018-04-11T23:40:28.919Z,10.30
2018-04-11T23:42:57.218Z,10.30
2018-04-11T23:45:25.593Z,10.30
2018-04-11T23:47:54.554Z,10.30
2018-04-11T23:50:22.672Z,10.30
2018-04-11T23:52:51.060Z,10.30
2018-04-11T23:55:19.175Z,10.30
2018-04-11T23:57:47.288Z,10.30
